Time;durP1;ratioP1;P1;durP2;ratioP2;P2;SDS_P1;SDS_P2;PMS_P1;PMS_P2;Temp;Humidity;BMP_temperature;BMP_pressure;BME280_temperature;BME280_humidity;BME280_pressure;Samples;Min_cycle;Max_cycle;Signal;HPM_P1;HPM_P2
2022/08/02 00:04:30;;;;;;;1.20;0.10;;;;;;;23.79;42.55;101774.50;16144803;19;129345;-58
2022/08/02 00:09:51;;;;;;;0.25;0.10;;;;;;;23.78;42.93;101774.75;16140751;19;129380;-57
2022/08/02 00:15:13;;;;;;;0.75;0.20;;;;;;;23.77;42.65;101778.66;16138931;19;130214;-57
2022/08/02 00:20:36;;;;;;;1.88;0.20;;;;;;;23.76;43.08;101769.44;16144304;19;129854;-58
2022/08/02 00:25:58;;;;;;;0.47;0.20;;;;;;;23.75;42.79;101775.28;16143172;19;130239;-59
2022/08/02 00:31:20;;;;;;;0.30;0.10;;;;;;;23.75;42.86;101772.50;16141350;19;129503;-58
2022/08/02 00:36:42;;;;;;;0.17;0.10;;;;;;;23.74;42.72;101776.41;16136935;19;129826;-56
2022/08/02 00:42:04;;;;;;;0.05;0.00;;;;;;;23.74;42.83;101777.22;16141610;19;129478;-58
2022/08/02 00:47:25;;;;;;;1.55;0.20;;;;;;;23.73;42.61;101767.16;16140734;19;131172;-58
2022/08/02 00:52:47;;;;;;;0.38;0.10;;;;;;;23.73;42.77;101764.38;16135240;19;129649;-58
2022/08/02 00:58:09;;;;;;;0.25;0.10;;;;;;;23.72;42.85;101756.25;16134696;19;129274;-56
2022/08/02 01:03:31;;;;;;;0.10;0.10;;;;;;;23.71;42.78;101752.59;16136444;19;129657;-58
2022/08/02 01:08:52;;;;;;;0.20;0.10;;;;;;;23.70;42.57;101759.28;16133374;19;130472;-58
2022/08/02 01:14:14;;;;;;;0.13;0.10;;;;;;;23.68;42.48;101750.34;16135753;19;129551;-58
2022/08/02 01:19:50;;;;;;;0.10;0.10;;;;;;;23.70;42.76;101741.69;16140782;19;129579;-58
2022/08/02 01:25:39;;;;;;;0.35;0.10;;;;;;;23.70;42.78;101748.13;16138458;19;129570;-58
2022/08/02 01:31:40;;;;;;;0.20;0.10;;;;;;;23.64;42.80;101741.63;16137394;19;129556;-57
2022/08/02 01:37:20;;;;;;;1.02;0.10;;;;;;;23.65;42.60;101723.75;16122450;19;129245;-57
2022/08/02 01:42:47;;;;;;;0.47;0.10;;;;;;;23.65;42.88;101732.13;16127627;19;129498;-58
2022/08/02 01:48:10;;;;;;;0.10;0.00;;;;;;;23.65;42.77;101742.47;16128166;19;130974;-58
2022/08/02 01:53:34;;;;;;;0.55;0.20;;;;;;;23.64;42.99;101738.84;16123614;19;129291;-57
2022/08/02 01:58:56;;;;;;;0.20;0.10;;;;;;;23.64;42.95;101730.44;16129362;19;129887;-58
2022/08/02 02:04:21;;;;;;;0.65;0.10;;;;;;;23.63;42.88;101725.97;16123947;19;129553;-57
2022/08/02 02:09:44;;;;;;;0.47;0.10;;;;;;;23.63;42.80;101722.34;16126634;19;130089;-57
2022/08/02 02:15:12;;;;;;;0.10;0.10;;;;;;;23.62;42.77;101707.53;16133162;19;130257;-57
2022/08/02 02:20:35;;;;;;;0.00;0.00;;;;;;;23.61;42.63;101689.09;16136347;19;130234;-57
2022/08/02 02:25:58;;;;;;;0.10;0.10;;;;;;;23.60;42.95;101687.41;16135434;19;130043;-57
2022/08/02 02:31:25;;;;;;;0.22;0.00;;;;;;;23.62;42.88;101687.13;16134019;19;130553;-57
2022/08/02 02:36:50;;;;;;;0.10;0.10;;;;;;;23.61;42.88;101688.25;16130535;19;130140;-56
2022/08/02 02:42:13;;;;;;;;;;;;;;;23.57;42.81;101695.44;16135050;19;131635;-57
2022/08/02 02:47:37;;;;;;;0.10;0.10;;;;;;;23.59;42.78;101691.31;16133442;19;130234;-58
2022/08/02 02:53:02;;;;;;;0.20;0.10;;;;;;;23.60;42.79;101680.97;16130443;19;128946;-57
2022/08/02 02:58:24;;;;;;;0.00;0.00;;;;;;;23.57;42.81;101671.13;16133710;19;129923;-57
2022/08/02 03:03:50;;;;;;;0.28;0.10;;;;;;;23.57;42.72;101675.91;16133373;19;129632;-57
2022/08/02 03:09:12;;;;;;;0.03;0.00;;;;;;;23.55;42.60;101673.34;16129961;19;129440;-57
2022/08/02 03:14:38;;;;;;;0.25;0.10;;;;;;;23.55;42.88;101690.09;16130859;19;129410;-57
2022/08/02 03:20:00;;;;;;;0.28;0.10;;;;;;;23.54;42.81;101702.38;16132911;19;132502;-56
2022/08/02 03:25:22;;;;;;;0.15;0.10;;;;;;;23.54;42.91;101687.59;16140980;19;129503;-57
2022/08/02 03:30:44;;;;;;;0.00;0.00;;;;;;;23.54;42.76;101679.19;16146299;19;129470;-57
2022/08/02 03:36:10;;;;;;;0.68;0.10;;;;;;;23.53;42.90;101663.53;16142999;19;129463;-56
2022/08/02 03:41:35;;;;;;;0.10;0.10;;;;;;;23.54;42.99;101676.41;16146465;19;129379;-57
2022/08/02 03:46:57;;;;;;;2.37;0.20;;;;;;;23.51;42.60;101673.03;16146760;19;129192;-57
2022/08/02 03:52:19;;;;;;;1.38;0.10;;;;;;;23.51;42.86;101684.19;16137642;19;129680;-59
2022/08/02 03:57:41;;;;;;;0.08;0.08;;;;;;;23.52;43.03;101668.28;16138104;19;129310;-57
2022/08/02 04:03:03;;;;;;;0.10;0.10;;;;;;;23.51;42.84;101661.84;16142595;19;129409;-58
2022/08/02 04:08:25;;;;;;;2.95;0.13;;;;;;;23.50;43.15;101649.00;16141005;19;129933;-58
2022/08/02 04:14:04;;;;;;;0.20;0.20;;;;;;;23.50;42.90;101648.16;16139918;19;129651;-57
2022/08/02 04:19:31;;;;;;;0.10;0.00;;;;;;;23.49;42.69;101652.91;16143969;19;129857;-56
2022/08/02 04:25:01;;;;;;;0.63;0.10;;;;;;;23.48;42.75;101658.75;16142964;19;129149;-56
2022/08/02 04:30:24;;;;;;;0.10;0.05;;;;;;;23.47;42.66;101665.44;16143373;19;129531;-56
2022/08/02 04:35:46;;;;;;;0.45;0.10;;;;;;;23.48;43.11;101661.53;16138288;19;129618;-56
2022/08/02 04:41:08;;;;;;;0.15;0.00;;;;;;;23.48;42.82;101667.13;16140964;19;129192;-55
2022/08/02 04:46:30;;;;;;;0.10;0.10;;;;;;;23.47;43.00;101668.22;16141790;19;129313;-57
2022/08/02 04:51:52;;;;;;;0.52;0.10;;;;;;;23.46;43.18;101664.56;16139921;19;129403;-57
2022/08/02 05:02:55;;;;;;;0.38;0.20;;;;;;;23.45;43.10;101670.44;16142334;19;129078;-58
2022/08/02 05:08:17;;;;;;;0.10;0.10;;;;;;;23.45;42.83;101668.47;16139212;19;129511;-57
2022/08/02 05:13:42;;;;;;;1.20;0.20;;;;;;;23.44;42.79;101665.97;16139271;19;129046;-57
2022/08/02 05:19:19;;;;;;;1.08;0.20;;;;;;;23.44;43.05;101668.75;16139383;19;129492;-57
2022/08/02 05:24:41;;;;;;;10.57;0.70;;;;;;;23.42;43.08;101682.13;16140869;19;128903;-56
2022/08/02 05:30:07;;;;;;;3.77;0.47;;;;;;;23.44;42.87;101679.91;16138543;19;129550;-56
2022/08/02 05:35:28;;;;;;;3.10;0.30;;;;;;;23.45;42.96;101679.63;16137866;19;130634;-57
2022/08/02 05:40:50;;;;;;;7.50;0.50;;;;;;;23.45;42.80;101684.41;16137908;19;129557;-57
2022/08/02 05:46:15;;;;;;;3.97;0.50;;;;;;;23.44;42.84;101688.28;16135113;19;131417;-57
2022/08/02 05:52:03;;;;;;;1.17;0.30;;;;;;;23.47;43.03;101693.38;16137714;19;129750;-55
2022/08/02 05:57:45;;;;;;;3.63;0.40;;;;;;;23.49;42.40;101696.75;16134571;19;130101;-56
2022/08/02 06:03:35;;;;;;;2.10;0.30;;;;;;;23.47;42.33;101693.38;16138590;19;129036;-55
2022/08/02 06:09:02;;;;;;;0.73;0.30;;;;;;;23.47;42.58;101696.97;16132987;19;129569;-56
2022/08/02 06:14:24;;;;;;;2.63;0.35;;;;;;;23.47;42.58;101699.78;16135000;19;129221;-57
2022/08/02 06:19:57;;;;;;;0.50;0.35;;;;;;;23.48;42.97;101695.06;16138244;19;129426;-57
2022/08/02 06:25:21;;;;;;;2.50;0.30;;;;;;;23.49;42.64;101691.16;16138069;19;132234;-58
2022/08/02 06:31:04;;;;;;;1.75;0.70;;;;;;;23.48;42.64;101683.88;16137961;19;130491;-57
2022/08/02 06:36:35;;;;;;;1.90;0.20;;;;;;;23.51;42.30;101683.34;16133050;19;129676;-57
2022/08/02 06:42:01;;;;;;;2.25;0.40;;;;;;;23.49;42.21;101674.41;16137416;19;130410;-57
2022/08/02 06:47:23;;;;;;;1.08;0.40;;;;;;;23.51;42.56;101677.75;16134586;19;130611;-57
2022/08/02 06:52:45;;;;;;;1.05;0.40;;;;;;;23.50;42.71;101682.50;16132458;19;129464;-57
2022/08/02 06:58:06;;;;;;;1.55;0.57;;;;;;;23.51;42.66;101694.50;16133759;19;130257;-57
2022/08/02 07:03:29;;;;;;;0.60;0.45;;;;;;;23.52;42.60;101690.63;16149782;19;129472;-56
2022/08/02 07:08:51;;;;;;;0.95;0.40;;;;;;;23.53;42.34;101692.31;16146147;19;129778;-57
2022/08/02 07:14:33;;;;;;;0.98;0.52;;;;;;;23.54;42.40;101694.00;16150805;19;130837;-56
2022/08/02 07:19:57;;;;;;;0.80;0.50;;;;;;;23.55;42.27;101689.28;16151858;19;129962;-56
2022/08/02 07:25:19;;;;;;;0.40;0.40;;;;;;;23.54;42.32;101691.19;16147577;19;129245;-57
2022/08/02 07:30:41;;;;;;;1.30;0.50;;;;;;;23.56;42.61;101679.78;16139896;19;129485;-57
2022/08/02 07:36:03;;;;;;;1.10;0.40;;;;;;;23.56;42.43;101674.19;16146585;19;129423;-57
2022/08/02 07:41:29;;;;;;;1.60;0.60;;;;;;;23.56;42.40;101675.03;16147074;19;129397;-57
2022/08/02 07:46:51;;;;;;;0.82;0.50;;;;;;;23.56;42.54;101675.03;16148574;19;128895;-58
2022/08/02 07:52:12;;;;;;;1.65;0.95;;;;;;;23.58;42.77;101683.13;16144573;19;129253;-56
2022/08/02 07:57:35;;;;;;;3.03;0.60;;;;;;;23.58;42.51;101688.72;16145368;19;129912;-57
2022/08/02 08:02:58;;;;;;;0.40;0.40;;;;;;;23.58;42.55;101689.63;16149193;19;129355;-56
2022/08/02 08:08:20;;;;;;;0.80;0.63;;;;;;;23.59;42.48;101679.28;16141286;19;129421;-57
2022/08/02 08:13:42;;;;;;;1.02;0.60;;;;;;;23.59;42.43;101682.06;16142722;19;129285;-57
2022/08/02 08:19:03;;;;;;;0.60;0.50;;;;;;;23.58;42.05;101684.03;16140098;19;129717;-57
2022/08/02 08:24:26;;;;;;;1.27;0.50;;;;;;;23.59;42.42;101677.34;16145349;19;129863;-57
2022/08/02 08:29:48;;;;;;;0.88;0.40;;;;;;;23.61;42.21;101680.72;16144598;19;132131;-57
2022/08/02 08:35:11;;;;;;;1.70;0.70;;;;;;;23.61;42.22;101679.84;16139911;19;132672;-57
2022/08/02 08:40:32;;;;;;;0.77;0.60;;;;;;;23.61;42.25;101686.31;16136553;19;130711;-56
2022/08/02 08:45:54;;;;;;;1.20;0.60;;;;;;;23.62;42.12;101678.75;16135108;19;130440;-57
2022/08/02 08:51:20;;;;;;;1.00;0.40;;;;;;;23.62;42.29;101679.63;16142935;19;129930;-57
2022/08/02 08:56:42;;;;;;;2.53;0.52;;;;;;;23.61;42.10;101680.72;16142425;19;129942;-58
2022/08/02 09:02:05;;;;;;;0.52;0.45;;;;;;;23.61;42.41;101683.50;16143011;19;128942;-57
2022/08/02 09:07:48;;;;;;;5.72;0.80;;;;;;;23.61;41.68;101677.06;16141209;19;129539;-57
2022/08/02 09:13:19;;;;;;;8.55;1.10;;;;;;;23.64;41.75;101677.38;16141266;19;129217;-57
2022/08/02 09:19:25;;;;;;;1.17;0.57;;;;;;;23.65;41.54;101670.69;16138014;19;130206;-57
2022/08/02 09:24:48;;;;;;;5.90;0.70;;;;;;;23.64;41.42;101670.97;16138304;19;129403;-57
2022/08/02 09:30:13;;;;;;;3.80;0.80;;;;;;;23.65;41.65;101667.06;16144399;19;129247;-57
2022/08/02 09:35:39;;;;;;;2.55;0.60;;;;;;;23.64;41.67;101677.38;16134100;19;128974;-58
2022/08/02 09:41:24;;;;;;;2.20;0.80;;;;;;;23.63;41.59;101670.09;16142217;19;129323;-58
2022/08/02 09:46:45;;;;;;;0.93;0.67;;;;;;;23.64;41.10;101671.78;16139799;19;129391;-58
2022/08/02 09:52:07;;;;;;;2.05;0.77;;;;;;;23.68;41.33;101668.47;16140473;19;129264;-58
2022/08/02 09:57:32;;;;;;;2.63;0.90;;;;;;;23.70;40.82;101675.47;16139834;19;128886;-58
2022/08/02 10:03:10;;;;;;;4.30;0.77;;;;;;;23.73;40.66;101677.75;16141558;19;128971;-58
2022/08/02 10:08:43;;;;;;;2.13;0.60;;;;;;;23.74;40.83;101670.25;16137703;19;131332;-58
2022/08/02 10:14:08;;;;;;;2.00;0.80;;;;;;;23.76;40.63;101670.78;16138915;19;129431;-57
2022/08/02 10:19:30;;;;;;;3.47;0.68;;;;;;;23.77;40.73;101655.72;16130462;19;130293;-57
2022/08/02 10:25:12;;;;;;;1.75;0.60;;;;;;;23.80;40.73;101658.00;16134722;19;130187;-58
2022/08/02 10:30:39;;;;;;;2.22;0.60;;;;;;;23.82;40.98;101661.38;16137010;19;128920;-57
2022/08/02 10:36:03;;;;;;;2.60;0.70;;;;;;;23.83;40.83;101663.06;16136180;19;129722;-57
2022/08/02 10:41:46;;;;;;;4.95;0.70;;;;;;;23.86;41.16;101656.09;16133980;19;128780;-58
2022/08/02 10:47:24;;;;;;;4.70;0.70;;;;;;;23.85;41.31;101655.25;16129696;19;130176;-58
2022/08/02 10:52:45;;;;;;;3.03;0.63;;;;;;;23.81;41.08;101642.91;16129371;19;129589;-58
2022/08/02 10:58:17;;;;;;;4.30;0.63;;;;;;;23.82;41.39;101639.00;16125902;19;129299;-58
2022/08/02 11:03:40;;;;;;;1.48;0.50;;;;;;;23.81;41.48;101637.31;16135645;19;129036;-58
2022/08/02 11:09:28;;;;;;;3.50;0.55;;;;;;;23.82;41.48;101636.22;16135945;19;129241;-58
2022/08/02 11:14:59;;;;;;;3.70;0.70;;;;;;;23.85;41.06;101634.84;16130897;19;129661;-58
2022/08/02 11:20:22;;;;;;;2.58;0.85;;;;;;;23.84;41.71;101625.63;16133367;19;129341;-58
2022/08/02 11:25:44;;;;;;;3.40;0.50;;;;;;;23.85;41.16;101632.03;16135982;19;129852;-58
2022/08/02 11:31:24;;;;;;;3.13;0.50;;;;;;;23.87;41.62;101624.25;16135659;19;132252;-58
2022/08/02 11:36:49;;;;;;;1.05;0.38;;;;;;;23.86;41.49;101634.59;16132844;19;129397;-56
2022/08/02 11:42:13;;;;;;;2.43;0.40;;;;;;;23.85;41.18;101632.03;16134365;19;128945;-56
2022/08/02 11:47:52;;;;;;;2.13;0.50;;;;;;;23.85;41.33;101623.66;16147929;19;129526;-56
2022/08/02 11:53:15;;;;;;;3.65;0.50;;;;;;;23.81;41.40;101612.19;16146234;19;129375;-56
2022/08/02 11:58:37;;;;;;;2.47;0.70;;;;;;;23.81;41.26;101615.84;16144394;19;128948;-57
2022/08/02 12:04:03;;;;;;;;;;;;;;;23.79;41.39;101618.03;16149007;19;128846;-58
2022/08/02 12:09:26;;;;;;;5.80;0.60;;;;;;;23.81;41.13;101609.38;16149616;19;131000;-56
2022/08/02 12:14:49;;;;;;;1.52;0.65;;;;;;;23.81;41.13;101620.56;16144719;19;128871;-56
2022/08/02 12:20:12;;;;;;;1.40;0.40;;;;;;;23.81;41.18;101606.59;16142991;19;129417;-57
2022/08/02 12:25:34;;;;;;;2.00;0.70;;;;;;;23.82;40.95;101616.66;16146676;19;129094;-58
2022/08/02 12:30:59;;;;;;;10.43;1.17;;;;;;;23.79;40.90;101611.59;16146544;19;129313;-58
2022/08/02 12:36:25;;;;;;;18.75;1.20;;;;;;;23.84;40.14;101620.03;16149220;19;130339;-55
2022/08/02 12:41:56;;;;;;;8.95;1.20;;;;;;;23.95;39.67;101613.44;16203607;19;128804;-58
2022/08/02 12:47:20;;;;;;;9.57;1.10;;;;;;;24.01;39.38;101605.94;16213097;19;128726;-58
2022/08/02 12:52:42;;;;;;;8.35;1.00;;;;;;;24.03;39.80;101595.34;16220276;19;127571;-60
2022/08/02 12:58:07;;;;;;;7.75;1.27;;;;;;;24.01;39.51;101586.38;16209506;19;129594;-57
2022/08/02 13:03:29;;;;;;;11.82;1.23;;;;;;;24.01;39.71;101589.16;16207218;19;128272;-57
2022/08/02 13:09:15;;;;;;;5.82;0.90;;;;;;;24.06;39.67;101588.34;16210177;19;128384;-57
2022/08/02 13:14:38;;;;;;;5.97;1.20;;;;;;;24.05;39.57;101575.50;16199733;19;128913;-57
2022/08/02 13:20:04;;;;;;;7.07;0.90;;;;;;;24.04;39.98;101588.63;16139366;19;128964;-56
2022/08/02 13:25:30;;;;;;;2.90;0.93;;;;;;;24.05;39.81;101569.91;16145123;19;130597;-58
2022/08/02 13:30:52;;;;;;;2.60;0.70;;;;;;;24.04;39.80;101562.63;16145193;19;129933;-56
2022/08/02 13:36:14;;;;;;;2.55;0.80;;;;;;;24.05;39.90;101564.31;16142822;19;129212;-57
2022/08/02 13:41:36;;;;;;;2.03;0.90;;;;;;;24.05;40.19;101547.53;16143509;19;129265;-57
2022/08/02 13:46:58;;;;;;;2.85;0.80;;;;;;;24.06;40.05;101555.63;16144104;19;129404;-56
2022/08/02 13:52:19;;;;;;;2.60;0.68;;;;;;;24.06;40.28;101546.44;16139383;19;131771;-57
2022/08/02 13:57:41;;;;;;;4.72;0.90;;;;;;;24.07;40.57;101545.31;16137996;19;129500;-60
2022/08/02 14:03:13;;;;;;;1.88;1.00;;;;;;;24.07;40.10;101531.34;16140322;19;129628;-58
2022/08/02 14:08:36;;;;;;;1.38;0.50;;;;;;;24.07;40.32;101528.56;16140004;19;130289;-58
2022/08/02 14:13:58;;;;;;;2.72;0.60;;;;;;;24.06;40.55;101527.69;16132993;19;129435;-58
2022/08/02 14:19:22;;;;;;;2.97;0.80;;;;;;;24.06;40.69;101524.06;16135180;19;130504;-58
2022/08/02 14:24:44;;;;;;;1.90;0.53;;;;;;;24.05;40.59;101527.97;16137996;19;129056;-58
2022/08/02 14:30:07;;;;;;;1.13;0.57;;;;;;;24.06;40.75;101521.28;16138378;19;129332;-59
2022/08/02 14:35:29;;;;;;;2.00;0.50;;;;;;;24.05;40.82;101520.44;16136204;19;129178;-58
2022/08/02 14:40:52;;;;;;;2.65;0.40;;;;;;;24.05;40.79;101505.59;16138718;19;129398;-59
2022/08/02 14:46:13;;;;;;;1.88;0.50;;;;;;;24.06;40.73;101515.69;16137186;19;129535;-58
2022/08/02 14:51:37;;;;;;;1.63;0.60;;;;;;;24.05;40.91;101509.25;16134771;19;131632;-58
2022/08/02 14:57:00;;;;;;;0.82;0.40;;;;;;;24.05;40.71;101502.81;16133989;19;128988;-58
2022/08/02 15:02:22;;;;;;;1.10;0.32;;;;;;;24.04;41.01;101499.19;16134544;19;129343;-59
2022/08/02 15:07:43;;;;;;;0.88;0.32;;;;;;;24.05;40.62;101491.63;16134106;19;129611;-59
2022/08/02 15:13:10;;;;;;;0.47;0.30;;;;;;;24.06;40.98;101490.53;16129590;19;130186;-58
2022/08/02 15:18:31;;;;;;;0.75;0.38;;;;;;;24.06;40.71;101493.31;16131407;19;129489;-59
2022/08/02 15:23:53;;;;;;;2.45;0.40;;;;;;;24.07;41.03;101492.22;16149009;19;129230;-58
2022/08/02 15:29:16;;;;;;;0.40;0.22;;;;;;;24.07;41.10;101483.81;16147310;19;130061;-58
2022/08/02 15:34:39;;;;;;;1.55;0.20;;;;;;;24.07;41.16;101483.81;16147646;19;129282;-58
2022/08/02 15:40:01;;;;;;;0.98;0.28;;;;;;;24.07;40.98;101483.81;16145340;19;129009;-58
2022/08/02 15:45:24;;;;;;;0.20;0.20;;;;;;;24.07;41.22;101479.06;16146635;19;129000;-58
2022/08/02 15:50:46;;;;;;;0.20;0.20;;;;;;;24.07;40.82;101473.47;16145882;19;130316;-58
2022/08/02 15:56:07;;;;;;;0.50;0.20;;;;;;;24.07;41.15;101469.84;16141959;19;130349;-60
2022/08/02 16:01:33;;;;;;;0.38;0.30;;;;;;;24.08;41.20;101458.38;16144255;19;129002;-58
2022/08/02 16:06:58;;;;;;;1.48;0.40;;;;;;;24.09;41.30;101462.03;16148035;19;129121;-58
2022/08/02 16:12:22;;;;;;;0.68;0.40;;;;;;;24.10;41.31;101449.75;16142806;19;129464;-58
2022/08/02 16:17:53;;;;;;;0.57;0.30;;;;;;;24.10;41.36;101450.59;16144787;19;131563;-59
2022/08/02 16:23:15;;;;;;;0.22;0.20;;;;;;;24.14;41.19;101445.28;16146737;19;129632;-59
2022/08/02 16:28:36;;;;;;;1.17;0.30;;;;;;;24.12;41.38;101448.34;16145473;19;130828;-59
2022/08/02 16:33:58;;;;;;;4.20;0.85;;;;;;;24.14;41.47;101436.91;16138872;19;129919;-59
2022/08/02 16:39:20;;;;;;;1.40;0.60;;;;;;;24.15;41.20;101427.41;16139729;19;128925;-59
2022/08/02 16:44:42;;;;;;;4.90;0.75;;;;;;;24.17;42.05;101430.78;16140878;19;129256;-64
2022/08/02 16:50:14;;;;;;;11.90;1.77;;;;;;;24.26;42.07;101436.72;16143299;19;129930;-61
2022/08/02 16:55:47;;;;;;;8.77;1.80;;;;;;;24.34;42.44;101429.75;16143967;19;128929;-56
2022/08/02 17:01:12;;;;;;;19.37;2.10;;;;;;;24.40;42.96;101431.44;16134246;19;129814;-57
2022/08/02 17:06:34;;;;;;;19.92;2.10;;;;;;;24.44;43.17;101427.00;16139536;19;129860;-58
2022/08/02 17:11:56;;;;;;;6.00;1.42;;;;;;;24.49;43.01;101423.38;16141999;19;130256;-58
2022/08/02 17:17:20;;;;;;;11.10;1.50;;;;;;;24.51;43.06;101421.97;16138716;19;129389;-55
2022/08/02 17:22:54;;;;;;;13.00;1.67;;;;;;;24.54;43.20;101418.63;16141621;19;128815;-57
2022/08/02 17:28:21;;;;;;;10.80;1.85;;;;;;;24.54;43.40;101426.22;16141795;19;129547;-63
2022/08/02 17:33:52;;;;;;;15.18;1.88;;;;;;;24.52;43.41;101428.44;16139993;19;129353;-59
2022/08/02 17:39:14;;;;;;;6.18;1.63;;;;;;;24.52;43.36;101429.25;16135959;19;130287;-59
2022/08/02 17:44:36;;;;;;;8.02;1.20;;;;;;;24.52;43.36;101417.25;16139302;19;129095;-60
2022/08/02 17:49:59;;;;;;;19.13;1.50;;;;;;;24.50;43.20;101428.69;16137309;19;130555;-59
2022/08/02 17:55:21;;;;;;;17.60;1.73;;;;;;;24.55;43.20;101434.31;16139565;19;130478;-59
2022/08/02 18:00:43;;;;;;;9.90;1.60;;;;;;;24.62;43.01;101424.78;16132104;19;129586;-59
2022/08/02 18:06:05;;;;;;;19.35;1.95;;;;;;;24.64;43.14;101428.16;16138750;19;129387;-61
2022/08/02 18:11:30;;;;;;;15.83;1.57;;;;;;;24.64;43.15;101425.38;16138018;19;131312;-60
2022/08/02 18:17:14;;;;;;;18.08;1.95;;;;;;;24.64;43.13;101428.16;16134888;19;129548;-60
2022/08/02 18:22:36;;;;;;;26.77;1.90;;;;;;;24.63;43.10;101426.47;16136510;19;130476;-60
2022/08/02 18:28:03;;;;;;;17.45;2.15;;;;;;;24.59;43.25;101426.19;16138763;19;130036;-60
2022/08/02 18:33:25;;;;;;;14.20;1.70;;;;;;;24.57;43.29;101423.69;16138588;19;129461;-60
2022/08/02 18:39:07;;;;;;;16.25;1.58;;;;;;;24.54;42.98;101427.03;16135594;19;129877;-60
2022/08/02 18:44:29;;;;;;;15.55;1.70;;;;;;;24.52;43.47;101422.84;16137349;19;129634;-60
2022/08/02 18:49:51;;;;;;;19.20;1.40;;;;;;;24.50;43.46;101420.28;16138518;19;130818;-60
2022/08/02 18:55:16;;;;;;;;;;;;;;;24.47;43.28;101414.41;16137393;19;129492;-60
2022/08/02 19:00:58;;;;;;;10.38;1.48;;;;;;;24.47;43.23;101423.66;16145645;19;129592;-59
2022/08/02 19:06:25;;;;;;;14.38;1.23;;;;;;;24.45;43.12;101419.44;16148589;19;129374;-60
2022/08/02 19:11:49;;;;;;;8.25;1.30;;;;;;;24.43;43.27;101430.91;16147537;19;130162;-60
2022/08/02 19:17:11;;;;;;;9.73;1.35;;;;;;;24.42;43.38;101423.63;16147092;19;129842;-59
2022/08/02 19:22:53;;;;;;;4.95;1.10;;;;;;;24.40;43.40;101429.50;16144977;19;130525;-60
2022/08/02 19:28:15;;;;;;;6.07;1.00;;;;;;;24.39;43.41;101429.75;16145494;19;131566;-60
2022/08/02 19:33:46;;;;;;;5.68;0.98;;;;;;;24.37;43.45;101432.84;16144197;19;129520;-57
2022/08/02 19:39:28;;;;;;;4.05;0.70;;;;;;;24.37;43.48;101423.63;16144478;19;129158;-58
2022/08/02 19:44:51;;;;;;;9.73;1.20;;;;;;;24.34;43.65;101438.16;16140539;19;129826;-57
2022/08/02 19:50:17;;;;;;;11.73;1.48;;;;;;;24.39;43.64;101441.81;16143600;19;129528;-55
2022/08/02 19:55:46;;;;;;;12.00;1.40;;;;;;;24.45;43.79;101448.25;16146624;19;129266;-57
2022/08/02 20:01:22;;;;;;;14.57;1.42;;;;;;;24.48;43.95;101453.31;16141172;19;129610;-57
2022/08/02 20:06:59;;;;;;;19.15;1.70;;;;;;;24.47;43.95;101447.97;16147126;19;129596;-58
2022/08/02 20:12:24;;;;;;;17.27;1.35;;;;;;;24.49;43.90;101459.72;16144439;19;130294;-58
2022/08/02 20:17:45;;;;;;;12.25;1.10;;;;;;;24.48;43.99;101453.31;16145977;19;129775;-58
2022/08/02 20:23:18;;;;;;;14.75;1.35;;;;;;;24.50;43.96;101461.41;16140099;19;129372;-58
2022/08/02 20:28:54;;;;;;;15.57;1.40;;;;;;;24.48;44.16;101458.91;16140515;19;130500;-57
2022/08/02 20:34:24;;;;;;;13.88;1.25;;;;;;;24.46;44.56;101469.53;16143989;19;129349;-58
2022/08/02 20:39:46;;;;;;;13.73;1.13;;;;;;;24.42;44.32;101471.16;16141266;19;129531;-59
2022/08/02 20:45:09;;;;;;;8.57;1.10;;;;;;;24.38;44.60;101476.47;16141913;19;130473;-58
2022/08/02 20:50:47;;;;;;;9.20;1.02;;;;;;;24.36;44.46;101480.66;16137875;19;129541;-67
2022/08/02 20:56:10;;;;;;;9.32;1.10;;;;;;;24.34;44.70;101477.31;16143343;19;129193;-70
2022/08/02 21:01:34;;;;;;;7.63;0.90;;;;;;;24.32;44.38;101471.13;16133919;19;132466;-66
2022/08/02 21:06:57;;;;;;;5.85;0.82;;;;;;;24.31;44.45;101470.28;16138925;19;132919;-68
2022/08/02 21:12:19;;;;;;;6.07;0.80;;;;;;;24.31;43.89;101466.66;16133844;19;129049;-70
2022/08/02 21:17:50;;;;;;;5.75;0.93;;;;;;;24.31;44.59;101467.47;16134265;19;129526;-59
2022/08/02 21:23:33;;;;;;;5.07;0.90;;;;;;;24.28;44.30;101459.66;16137412;19;128970;-61
2022/08/02 21:28:57;;;;;;;4.20;0.70;;;;;;;24.27;44.19;101472.78;16139344;19;129688;-58
2022/08/02 21:34:21;;;;;;;1.67;0.40;;;;;;;24.27;43.88;101458.81;16138969;19;129336;-58
2022/08/02 21:39:48;;;;;;;1.52;0.43;;;;;;;24.27;44.06;101457.97;16135261;19;130731;-58
2022/08/02 21:45:14;;;;;;;4.10;0.50;;;;;;;24.26;44.01;101459.91;16134777;19;129325;-59
2022/08/02 21:50:37;;;;;;;6.03;0.68;;;;;;;24.24;44.12;101467.75;16134574;19;129271;-58
2022/08/02 21:56:00;;;;;;;2.67;0.60;;;;;;;24.24;44.35;101462.16;16139628;19;130224;-58
2022/08/02 22:01:23;;;;;;;3.70;0.70;;;;;;;24.22;44.11;101463.50;16134466;19;130335;-58
2022/08/02 22:06:50;;;;;;;5.53;0.60;;;;;;;24.21;44.03;101473.84;16133354;19;130477;-58
2022/08/02 22:12:14;;;;;;;2.33;0.52;;;;;;;24.19;44.17;101467.69;16134231;19;130297;-58
2022/08/02 22:17:38;;;;;;;2.63;0.52;;;;;;;24.19;44.13;101464.88;16136404;19;130479;-58
2022/08/02 22:23:14;;;;;;;2.55;0.63;;;;;;;24.20;44.44;101469.38;16132446;19;129730;-57
2022/08/02 22:28:56;;;;;;;1.42;0.40;;;;;;;24.18;44.11;101468.78;16135278;19;129027;-58
2022/08/02 22:34:20;;;;;;;1.70;0.47;;;;;;;24.19;44.17;101467.69;16134878;19;129814;-58
2022/08/02 22:40:02;;;;;;;1.77;0.40;;;;;;;24.19;43.93;101480.81;16132856;19;130522;-58
2022/08/02 22:45:30;;;;;;;2.88;0.40;;;;;;;24.18;44.15;101471.59;16133682;19;129873;-58
2022/08/02 22:50:58;;;;;;;1.33;0.45;;;;;;;24.17;43.76;101475.50;16132285;19;130479;-58
2022/08/02 22:56:20;;;;;;;3.03;0.65;;;;;;;24.16;43.90;101479.41;16134239;19;129691;-57
2022/08/02 23:01:42;;;;;;;1.15;0.30;;;;;;;24.15;44.10;101474.91;16127707;19;129779;-58
2022/08/02 23:07:04;;;;;;;3.22;0.40;;;;;;;24.16;43.97;101481.38;16135664;19;128902;-58
2022/08/02 23:12:26;;;;;;;2.08;0.82;;;;;;;24.16;44.06;101481.38;16130635;19;129123;-58
2022/08/02 23:23:28;;;;;;;1.40;0.40;;;;;;;24.14;43.91;101483.59;16132995;19;129211;-58
2022/08/02 23:28:50;;;;;;;2.70;0.57;;;;;;;24.11;43.79;101480.22;16130721;19;129565;-58
2022/08/02 23:34:12;;;;;;;1.30;0.30;;;;;;;24.12;44.03;101483.88;16132501;19;130247;-58
2022/08/02 23:39:35;;;;;;;3.42;0.63;;;;;;;24.11;44.02;101480.22;16129672;19;129873;-57
2022/08/02 23:44:57;;;;;;;0.63;0.30;;;;;;;24.12;43.88;101489.47;16146257;19;129594;-58
2022/08/02 23:50:18;;;;;;;0.55;0.20;;;;;;;24.12;43.98;101486.66;16145100;19;129976;-56
2022/08/02 23:55:40;;;;;;;2.53;0.57;;;;;;;24.11;44.04;101493.38;16145977;19;129543;-57
